Chesterfield, United Kingdom
Current Conditions -  °F | °C
As of 1:20 PM on Tuesday 21 Oct 2014 (Local Time) from EGCN Reporting Station
Few Clouds Few Clouds  
Wind Chill: 50°   Ceiling: Unl
Heat Index: 50°   Visibility: 4mi
Dew Point: 43°   Wind: 20mph
Humidity: 76%   Direction: 280°W
Pressure: 29.59"   Gusts: NA
Location:  53.26°N, 1.39°W
Report Text: EGCN 211220Z 28017KT 6000 FEW020 10/06 Q1002
Loading
Personal Weather Stations






























Interactive Weather Map New forecast layout! Learn more

10-Day Weather Forecast

Advertisements
Track Severe Weather on mobile